Healdsburg, California
Current Conditions -  °F | °C
As of 12:53 PM on Saturday 22 Nov 2014 (Local Time) from KSTS Reporting Station
Broken Clouds Broken Clouds  
Wind Chill: 69°   Ceiling: 3000
Heat Index: 69°   Visibility: 10mi
Dew Point: 50°   Wind: 16mph
Humidity: 51%   Direction: 300°WNW
Pressure: 30.07"   Gusts: 26mph
Location:  38.61°N, 122.86°W
Report Text: KSTS 222053Z 30014G23KT 10SM BKN030 21/10 A3007 RMK AO2 SLP177 T02060100 52004
Loading
Personal Weather Stations






























Interactive Weather Map New forecast layout! Learn more

10-Day Weather Forecast

Advertisements
Track Severe Weather on mobile